createdAt,value
2023-02-12T00:02:16.442Z,96311.83
2023-02-12T00:04:45.282Z,96300.98
2023-02-12T00:07:13.877Z,96311.58
2023-02-12T00:09:42.805Z,96298.64
2023-02-12T00:12:11.446Z,96314.09
2023-02-12T00:14:43.024Z,96308.05
2023-02-12T00:17:11.645Z,96308.42
2023-02-12T00:19:40.324Z,96310.82
2023-02-12T00:22:08.987Z,96308.95
2023-02-12T00:24:37.712Z,96315.20
2023-02-12T00:27:06.356Z,96312.91
2023-02-12T00:29:35.091Z,96304.06
2023-02-12T00:32:05.263Z,96309.55
2023-02-12T00:34:34.087Z,96303.80
2023-02-12T00:37:02.924Z,96298.05
2023-02-12T00:39:31.507Z,96298.81
2023-02-12T00:42:01.818Z,96288.38
2023-02-12T00:44:30.360Z,96279.70
2023-02-12T00:47:04.900Z,96284.97
2023-02-12T00:49:35.741Z,96283.03
2023-02-12T00:52:06.187Z,96276.78
2023-02-12T00:54:34.863Z,96277.56
2023-02-12T00:57:03.587Z,96262.62
2023-02-12T00:59:32.597Z,96264.25
2023-02-12T01:02:01.298Z,96258.70
2023-02-12T01:04:29.940Z,96253.72
2023-02-12T01:06:58.655Z,96257.15
2023-02-12T01:09:27.471Z,96261.58
2023-02-12T01:11:56.180Z,96257.63
2023-02-12T01:14:24.876Z,96264.88
2023-02-12T01:16:53.489Z,96265.69
2023-02-12T01:19:22.145Z,96269.09
2023-02-12T01:21:50.855Z,96262.87
2023-02-12T01:24:19.532Z,96275.77
2023-02-12T01:26:48.094Z,96267.66
2023-02-12T01:29:16.771Z,96275.03
2023-02-12T01:31:45.643Z,96271.61
2023-02-12T01:34:14.609Z,96278.44
2023-02-12T01:36:43.365Z,96268.23
2023-02-12T01:39:12.906Z,96272.70
2023-02-12T01:41:44.525Z,96263.27
2023-02-12T01:44:21.728Z,96264.37
2023-02-12T01:46:53.365Z,96257.53
2023-02-12T01:49:41.929Z,96259.14
2023-02-12T01:52:28.442Z,96253.67
2023-02-12T01:55:00.101Z,96244.52
2023-02-12T01:57:31.793Z,96244.03
2023-02-12T02:00:03.625Z,96244.05
2023-02-12T02:02:33.462Z,96247.23
2023-02-12T02:05:05.426Z,96256.07
2023-02-12T02:07:34.698Z,96258.20
2023-02-12T02:10:04.050Z,96251.41
2023-02-12T02:12:50.713Z,96242.86
2023-02-12T02:15:19.423Z,96249.92
2023-02-12T02:17:53.852Z,96245.00
2023-02-12T02:20:40.693Z,96243.44
2023-02-12T02:23:48.160Z,96239.23
2023-02-12T02:26:25.596Z,96239.00
2023-02-12T02:29:18.520Z,96231.95
2023-02-12T02:31:50.180Z,96238.22
2023-02-12T02:34:30.862Z,96238.48
2023-02-12T02:37:08.411Z,96235.87
2023-02-12T02:39:42.977Z,96246.34
2023-02-12T02:42:14.326Z,96224.09
2023-02-12T02:44:54.881Z,96232.43
2023-02-12T02:47:26.607Z,96228.22
2023-02-12T02:50:01.182Z,96234.50
2023-02-12T02:52:44.834Z,96237.37
2023-02-12T02:55:16.202Z,96235.25
2023-02-12T02:57:50.841Z,96242.55
2023-02-12T03:00:34.329Z,96247.79
2023-02-12T03:03:15.724Z,96247.03
2023-02-12T03:05:47.324Z,96253.61
2023-02-12T03:08:27.731Z,96245.99
2023-02-12T03:10:59.269Z,96246.50
2023-02-12T03:13:36.539Z,96247.77
2023-02-12T03:16:26.442Z,96248.05
2023-02-12T03:18:58.035Z,96254.55
2023-02-12T03:21:32.295Z,96247.52
2023-02-12T03:24:04.206Z,96243.55
2023-02-12T03:26:48.070Z,96249.31
2023-02-12T03:29:16.906Z,96243.55
2023-02-12T03:31:51.157Z,96234.16
2023-02-12T03:34:37.759Z,96240.98
2023-02-12T03:37:17.896Z,96245.14
2023-02-12T03:40:04.971Z,96240.66
2023-02-12T03:42:39.624Z,96235.69
2023-02-12T03:45:26.735Z,96236.66
2023-02-12T03:48:22.153Z,96239.00
2023-02-12T03:50:59.938Z,96237.42
2023-02-12T03:53:30.180Z,96237.40
2023-02-12T03:56:10.729Z,96246.83
2023-02-12T03:58:41.990Z,96238.70
2023-02-12T04:01:11.852Z,96238.45
2023-02-12T04:03:41.749Z,96230.84
2023-02-12T04:06:25.959Z,96232.14
2023-02-12T04:08:57.454Z,96231.86
2023-02-12T04:11:51.366Z,96238.37
2023-02-12T04:14:31.897Z,96234.44
2023-02-12T04:17:21.150Z,96243.05
2023-02-12T04:20:14.397Z,96236.22
2023-02-12T04:23:02.772Z,96246.94
2023-02-12T04:25:55.927Z,96249.03
2023-02-12T04:28:36.243Z,96260.83
2023-02-12T04:31:22.900Z,96247.22
2023-02-12T04:34:06.814Z,96246.94
2023-02-12T04:36:41.185Z,96261.33
2023-02-12T04:39:12.914Z,96257.15
2023-02-12T04:41:41.994Z,96254.80
2023-02-12T04:44:23.179Z,96254.53
2023-02-12T04:46:52.650Z,96259.22
2023-02-12T04:49:22.986Z,96262.92
2023-02-12T04:51:52.461Z,96265.23
2023-02-12T04:54:23.246Z,96262.41
2023-02-12T04:56:52.180Z,96261.38
2023-02-12T04:59:20.901Z,96273.43
2023-02-12T05:01:49.760Z,96265.77
2023-02-12T05:04:20.050Z,96266.83
2023-02-12T05:06:48.785Z,96268.61
2023-02-12T05:09:20.148Z,96262.59
2023-02-12T05:11:49.038Z,96270.98
2023-02-12T05:14:17.832Z,96267.05
2023-02-12T05:16:46.643Z,96278.02
2023-02-12T05:19:15.312Z,96274.81
2023-02-12T05:21:44.182Z,96279.00
2023-02-12T05:24:12.949Z,96274.45
2023-02-12T05:26:41.603Z,96286.00
2023-02-12T05:29:10.433Z,96286.75
2023-02-12T05:31:39.216Z,96288.56
2023-02-12T05:34:10.234Z,96290.09
2023-02-12T05:36:39.467Z,96293.25
2023-02-12T05:39:09.208Z,96297.72
2023-02-12T05:41:37.971Z,96301.66
2023-02-12T05:44:07.663Z,96301.70
2023-02-12T05:46:36.306Z,96310.33
2023-02-12T05:49:05.131Z,96307.73
2023-02-12T05:51:34.403Z,96309.83
2023-02-12T05:54:06.003Z,96304.64
2023-02-12T05:56:40.606Z,96315.19
2023-02-12T05:59:11.534Z,96314.15
2023-02-12T06:01:42.654Z,96313.39
2023-02-12T06:04:16.963Z,96317.56
2023-02-12T06:06:45.962Z,96323.36
2023-02-12T06:09:15.523Z,96330.20
2023-02-12T06:11:44.450Z,96319.99
2023-02-12T06:14:15.994Z,96321.28
2023-02-12T06:16:47.512Z,96318.39
2023-02-12T06:19:16.415Z,96324.69
2023-02-12T06:21:45.458Z,96327.55
2023-02-12T06:24:15.653Z,96332.20
2023-02-12T06:26:44.434Z,96344.59
2023-02-12T06:29:13.428Z,96330.94
2023-02-12T06:31:52.269Z,96330.42
2023-02-12T06:34:21.122Z,96329.66
2023-02-12T06:36:49.881Z,96324.41
2023-02-12T06:39:19.943Z,96327.86
2023-02-12T06:41:49.128Z,96344.03
2023-02-12T06:44:19.763Z,96334.72
2023-02-12T06:46:48.592Z,96335.95
2023-02-12T06:49:17.383Z,96339.70
2023-02-12T06:51:48.503Z,96339.13
2023-02-12T06:54:18.369Z,96340.91
2023-02-12T06:56:47.523Z,96341.25
2023-02-12T06:59:18.540Z,96341.48
2023-02-12T07:01:47.401Z,96345.64
2023-02-12T07:04:17.665Z,96347.23
2023-02-12T07:06:46.965Z,96343.34
2023-02-12T07:09:15.954Z,96343.80
2023-02-12T07:11:46.382Z,96345.16
2023-02-12T07:14:16.513Z,96340.67
2023-02-12T07:16:48.090Z,96340.91
2023-02-12T07:19:18.431Z,96345.02
2023-02-12T07:21:47.285Z,96355.23
2023-02-12T07:24:18.631Z,96352.81
2023-02-12T07:26:47.642Z,96352.89
2023-02-12T07:29:17.260Z,96354.82
2023-02-12T07:31:46.231Z,96345.55
2023-02-12T07:34:16.640Z,96349.72
2023-02-12T07:36:45.420Z,96353.95
2023-02-12T07:39:17.221Z,96362.84
2023-02-12T07:41:45.940Z,96367.13
2023-02-12T07:44:16.265Z,96367.56
2023-02-12T07:46:48.684Z,96363.98
2023-02-12T07:49:20.222Z,96367.62
2023-02-12T07:51:50.229Z,96369.39
2023-02-12T07:54:20.526Z,96376.24
2023-02-12T07:56:49.229Z,96370.05
2023-02-12T07:59:19.551Z,96369.75
2023-02-12T08:01:50.639Z,96364.99
2023-02-12T08:04:22.305Z,96367.41
2023-02-12T08:06:54.196Z,96367.20
2023-02-12T08:09:33.706Z,96369.77
2023-02-12T08:12:02.593Z,96366.58
2023-02-12T08:14:41.577Z,96365.70
2023-02-12T08:17:10.454Z,96364.31
2023-02-12T08:25:40.266Z,96361.63
2023-02-12T08:28:14.376Z,96370.52
2023-02-12T08:30:45.255Z,96374.36
2023-02-12T08:33:18.192Z,96375.89
2023-02-12T08:38:54.723Z,96382.80
2023-02-12T08:41:29.029Z,96389.66
2023-02-12T08:44:00.747Z,96393.02
2023-02-12T08:46:32.635Z,96403.68
2023-02-12T08:49:13.387Z,96404.17
2023-02-12T08:51:49.212Z,96406.80
2023-02-12T08:54:34.401Z,96406.50
2023-02-12T08:57:04.413Z,96404.53
2023-02-12T08:59:38.270Z,96403.42
2023-02-12T09:02:14.806Z,96416.47
2023-02-12T09:04:52.978Z,96407.81
2023-02-12T09:07:32.123Z,96423.00
2023-02-12T09:10:18.031Z,96420.80
2023-02-12T09:12:49.697Z,96421.81
2023-02-12T09:15:27.502Z,96420.41
2023-02-12T09:17:53.693Z,96426.33
2023-02-12T09:20:24.055Z,96428.38
2023-02-12T09:22:54.334Z,96428.06
2023-02-12T09:25:23.251Z,96406.27
2023-02-12T09:27:54.399Z,96420.41
2023-02-12T09:36:52.902Z,96423.27
2023-02-12T09:39:21.854Z,96424.69
2023-02-12T09:45:31.143Z,96443.36
2023-02-12T09:51:25.212Z,96452.67
2023-02-12T10:18:28.711Z,96456.37
2023-02-12T10:49:16.903Z,96443.81
2023-02-12T10:52:53.056Z,96446.45
2023-02-12T10:55:42.753Z,96452.62
2023-02-12T10:58:31.354Z,96452.45
2023-02-12T11:04:15.949Z,96465.61
2023-02-12T11:07:42.238Z,96475.30
2023-02-12T11:10:24.876Z,96455.72
2023-02-12T11:13:12.324Z,96455.98
2023-02-12T11:15:52.705Z,96440.66
2023-02-12T11:47:45.935Z,96447.34
2023-02-12T11:50:46.317Z,96445.12
2023-02-12T11:59:42.476Z,96450.50
2023-02-12T12:19:55.954Z,96448.52
2023-02-12T12:22:55.335Z,96446.91
2023-02-12T12:25:58.629Z,96448.25
2023-02-12T12:28:30.823Z,96449.53
2023-02-12T12:31:02.942Z,96464.73
2023-02-12T12:33:34.700Z,96460.41
2023-02-12T12:36:29.087Z,96460.41
2023-02-12T12:39:30.835Z,96459.55
2023-02-12T12:42:28.397Z,96457.98
2023-02-12T12:45:01.586Z,96454.27
2023-02-12T12:51:11.640Z,96462.96
2023-02-12T12:53:49.764Z,96479.82
2023-02-12T12:56:30.369Z,96479.82
2023-02-12T13:02:48.998Z,96473.73
2023-02-12T13:05:52.101Z,96474.11
2023-02-12T13:08:23.854Z,96484.50
2023-02-12T13:11:10.597Z,96473.70
2023-02-12T13:13:46.701Z,96482.39
2023-02-12T13:43:11.357Z,96490.83
2023-02-12T13:46:28.677Z,96494.48
2023-02-12T13:49:02.927Z,96497.36
2023-02-12T13:51:43.568Z,96500.33
2023-02-12T13:54:32.454Z,96500.33
2023-02-12T13:57:04.502Z,96502.55
2023-02-12T13:59:44.803Z,96502.80
2023-02-12T14:02:39.424Z,96505.50
2023-02-12T14:05:27.319Z,96498.18
2023-02-12T14:08:13.075Z,96514.41
2023-02-12T14:10:50.358Z,96520.11
2023-02-12T14:13:28.949Z,96525.52
2023-02-12T14:16:05.988Z,96528.57
2023-02-12T14:21:44.027Z,96527.23
2023-02-12T14:24:39.297Z,96529.02
2023-02-12T14:34:16.732Z,96543.94
2023-02-12T14:47:22.907Z,96551.20
2023-02-12T14:56:46.194Z,96571.84
2023-02-12T14:59:22.373Z,96569.77
2023-02-12T15:18:30.388Z,96586.34
2023-02-12T15:24:52.040Z,96617.87
2023-02-12T15:51:57.002Z,96666.11
2023-02-12T15:55:19.363Z,96663.08
2023-02-12T15:57:59.013Z,96666.12
2023-02-12T16:00:51.954Z,96669.09
2023-02-12T16:03:33.653Z,96683.22
2023-02-12T16:06:17.050Z,96683.22
2023-02-12T16:09:00.862Z,96690.58
2023-02-12T16:11:34.351Z,96691.86
2023-02-12T16:14:25.807Z,96701.11
2023-02-12T16:16:56.919Z,96696.05
2023-02-12T16:19:30.671Z,96701.70
2023-02-12T16:22:07.839Z,96708.28
2023-02-12T16:24:42.204Z,96716.78
2023-02-12T16:27:19.586Z,96725.73
2023-02-12T16:29:51.113Z,96728.62
2023-02-12T16:32:41.025Z,96733.57
2023-02-12T16:35:17.674Z,96732.44
2023-02-12T16:38:04.529Z,96740.34
2023-02-12T16:40:36.557Z,96741.09
2023-02-12T16:43:08.112Z,96750.77
2023-02-12T16:45:42.098Z,96740.27
2023-02-12T16:48:27.654Z,96745.72
2023-02-12T16:50:58.917Z,96744.03
2023-02-12T16:53:41.672Z,96747.34
2023-02-12T16:56:13.339Z,96755.27
2023-02-12T16:58:43.437Z,96751.32
2023-02-12T17:01:15.036Z,96753.92
2023-02-12T17:03:46.472Z,96762.13
2023-02-12T17:06:16.047Z,96762.06
2023-02-12T17:08:44.768Z,96766.94
2023-02-12T17:11:15.345Z,96773.27
2023-02-12T17:13:45.135Z,96781.61
2023-02-12T17:16:25.087Z,96780.55
2023-02-12T17:18:45.064Z,96785.84
2023-02-12T17:21:28.669Z,96795.05
2023-02-12T17:23:57.733Z,96798.47
2023-02-12T17:26:26.985Z,96803.39
2023-02-12T17:28:56.666Z,96807.63
2023-02-12T17:31:25.431Z,96816.59
2023-02-12T17:33:54.068Z,96821.59
2023-02-12T17:36:23.340Z,96823.70
2023-02-12T17:38:52.027Z,96821.27
2023-02-12T17:41:21.044Z,96829.02
2023-02-12T17:43:52.582Z,96828.01
2023-02-12T17:46:26.686Z,96827.50
2023-02-12T17:48:55.142Z,96838.13
2023-02-12T17:51:24.106Z,96842.00
2023-02-12T17:53:55.798Z,96837.77
2023-02-12T17:56:28.385Z,96840.66
2023-02-12T17:58:57.178Z,96848.64
2023-02-12T18:01:26.322Z,96847.58
2023-02-12T18:03:58.248Z,96850.98
2023-02-12T18:06:32.477Z,96854.89
2023-02-12T18:09:04.929Z,96854.35
2023-02-12T18:11:33.746Z,96854.58
2023-02-12T18:14:05.546Z,96849.52
2023-02-12T18:16:36.669Z,96848.51
2023-02-12T18:19:06.141Z,96842.83
2023-02-12T18:21:39.319Z,96852.00
2023-02-12T18:24:08.699Z,96845.69
2023-02-12T18:29:21.118Z,96851.53
2023-02-12T18:35:19.156Z,96848.05
2023-02-12T18:37:53.158Z,96845.19
2023-02-12T18:40:38.419Z,96860.19
2023-02-12T18:43:18.592Z,96858.64
2023-02-12T18:45:51.851Z,96853.16
2023-02-12T18:48:20.817Z,96861.33
2023-02-12T18:51:15.289Z,96862.14
2023-02-12T18:55:36.670Z,96867.16
2023-02-12T18:56:31.663Z,96868.72
2023-02-12T18:59:03.415Z,96880.53
2023-02-12T19:01:36.922Z,96877.11
2023-02-12T19:04:10.141Z,96889.27
2023-02-12T19:07:04.220Z,96892.14
2023-02-12T19:09:32.999Z,96890.74
2023-02-12T19:12:01.842Z,96897.93
2023-02-12T19:14:30.951Z,96900.28
2023-02-12T19:16:59.874Z,96897.93
2023-02-12T19:19:29.518Z,96898.47
2023-02-12T19:22:00.002Z,96903.72
2023-02-12T19:24:44.462Z,96897.20
2023-02-12T19:26:59.303Z,96905.59
2023-02-12T19:29:28.371Z,96899.28
2023-02-12T19:31:59.791Z,96901.34
2023-02-12T19:34:37.371Z,96897.20
2023-02-12T19:37:03.676Z,96906.92
2023-02-12T19:42:22.656Z,96896.72
2023-02-12T19:44:51.272Z,96899.13
2023-02-12T19:47:21.608Z,96908.31
2023-02-12T19:49:50.668Z,96912.54
2023-02-12T19:52:21.258Z,96921.47
2023-02-12T19:54:51.619Z,96923.56
2023-02-12T19:57:22.157Z,96922.27
2023-02-12T19:59:50.876Z,96927.77
2023-02-12T20:02:22.273Z,96918.55
2023-02-12T20:04:51.113Z,96921.45
2023-02-12T20:07:19.813Z,96932.47
2023-02-12T20:09:52.257Z,96937.70
2023-02-12T20:12:20.943Z,96937.17
2023-02-12T20:14:49.523Z,96936.69
2023-02-12T20:17:18.628Z,96937.48
2023-02-12T20:19:48.846Z,96941.95
2023-02-12T20:22:17.416Z,96952.15
2023-02-12T20:24:50.384Z,96942.42
2023-02-12T20:27:25.276Z,96946.07
2023-02-12T20:29:56.184Z,96949.21
2023-02-12T20:35:18.640Z,96946.77
2023-02-12T20:38:20.120Z,96945.72
2023-02-12T20:40:49.024Z,96948.89
2023-02-12T20:43:17.998Z,96954.38
2023-02-12T20:45:51.211Z,96952.75
2023-02-12T20:48:33.124Z,96958.78
2023-02-12T20:51:13.493Z,96960.35
2023-02-12T20:53:48.297Z,96955.66
2023-02-12T20:56:29.640Z,96953.53
2023-02-12T21:01:50.824Z,96950.09
2023-02-12T21:04:24.683Z,96961.04
2023-02-12T21:06:53.626Z,96970.97
2023-02-12T21:09:22.391Z,96973.88
2023-02-12T21:11:57.308Z,96983.84
2023-02-12T21:14:29.386Z,96982.72
2023-02-12T21:16:58.621Z,96978.83
2023-02-12T21:19:30.280Z,96982.72
2023-02-12T21:21:59.257Z,96986.69
2023-02-12T21:24:28.085Z,96980.58
2023-02-12T21:26:59.755Z,96986.39
2023-02-12T21:29:30.050Z,96986.34
2023-02-12T21:31:58.878Z,96996.57
2023-02-12T21:34:27.793Z,96995.55
2023-02-12T21:36:57.662Z,96993.89
2023-02-12T21:39:28.925Z,97001.44
2023-02-12T21:42:03.242Z,96995.98
2023-02-12T21:44:35.699Z,96999.13
2023-02-12T21:47:10.003Z,97008.04
2023-02-12T21:49:39.659Z,97013.39
2023-02-12T21:55:04.078Z,97015.86
2023-02-12T21:57:53.353Z,97023.20
2023-02-12T22:00:35.074Z,97021.68
2023-02-12T22:03:06.279Z,97028.42
2023-02-12T22:05:35.651Z,97028.17
2023-02-12T22:08:04.734Z,97033.16
2023-02-12T22:10:33.260Z,97029.48
2023-02-12T22:13:03.699Z,97031.58
2023-02-12T22:15:32.514Z,97037.75
2023-02-12T22:18:01.288Z,97037.56
2023-02-12T22:20:30.445Z,97035.35
2023-02-12T22:22:59.758Z,97035.61
2023-02-12T22:25:28.466Z,97034.77
2023-02-12T22:27:57.239Z,97037.59
2023-02-12T22:30:26.019Z,97032.14
2023-02-12T22:32:56.173Z,97038.17
2023-02-12T22:35:24.851Z,97035.27
2023-02-12T22:37:53.464Z,97042.29
2023-02-12T22:40:22.159Z,97050.52
2023-02-12T22:42:50.699Z,97041.88
2023-02-12T22:45:19.652Z,97046.59
2023-02-12T22:47:48.284Z,97049.16
2023-02-12T22:50:16.963Z,97049.61
2023-02-12T22:52:45.763Z,97051.71
2023-02-12T22:55:14.476Z,97052.41
2023-02-12T22:57:43.214Z,97050.59
2023-02-12T23:00:12.233Z,97048.95
2023-02-12T23:02:41.050Z,97046.02
2023-02-12T23:05:09.769Z,97045.44
2023-02-12T23:07:38.393Z,97054.05
2023-02-12T23:10:07.815Z,97053.14
2023-02-12T23:12:36.410Z,97054.68
2023-02-12T23:15:05.327Z,97055.30
2023-02-12T23:17:34.689Z,97059.74
2023-02-12T23:20:03.355Z,97067.08
2023-02-12T23:22:31.986Z,97063.67
2023-02-12T23:25:05.289Z,97060.86
2023-02-12T23:27:34.021Z,97063.73
2023-02-12T23:30:02.746Z,97067.67
2023-02-12T23:32:32.940Z,97064.84
2023-02-12T23:35:01.613Z,97065.30
2023-02-12T23:37:30.315Z,97072.39
2023-02-12T23:39:58.939Z,97072.58
2023-02-12T23:42:27.652Z,97080.09
2023-02-12T23:44:57.632Z,97085.30
2023-02-12T23:47:26.549Z,97084.98
2023-02-12T23:49:55.133Z,97082.42
2023-02-12T23:52:23.683Z,97080.08
2023-02-12T23:54:52.326Z,97079.99
2023-02-12T23:57:20.994Z,97073.47
2023-02-12T23:59:49.718Z,97071.30
